Allerton, New York
Current Conditions -  °F | °C
As of 1:51 AM on Sunday 28 Dec 2014 (Local Time) from KLGA Reporting Station
Broken Clouds Broken Clouds  
Wind Chill:   Ceiling: 25000
Heat Index:   Visibility: 10mi
Dew Point:   Wind: 6mph
Humidity: 61%   Direction: 200°SSW
Pressure: 30"   Gusts: NA
Location:  40.8778°N, 73.8721°W
Report Text: KLGA 280651Z 20005KT 10SM FEW075 BKN250 09/02 A3000 RMK AO2 SLP160 T00890017
Loading
Personal Weather Stations






























Interactive Weather Map New forecast layout! Learn more

10-Day Weather Forecast

Advertisements
Track Severe Weather on mobile